sensor_id;sensor_type;location;lat;lon;timestamp;P1;durP1;ratioP1;P2;durP2;ratioP2
37201;SDS011;37799;52.390;6.136;2024-01-30T00:00:05;16.42;;;7.22;;
37201;SDS011;37799;52.390;6.136;2024-01-30T00:02:31;14.95;;;7.85;;
37201;SDS011;37799;52.390;6.136;2024-01-30T00:04:57;15.82;;;6.85;;
37201;SDS011;37799;52.390;6.136;2024-01-30T00:07:22;16.98;;;7.15;;
37201;SDS011;37799;52.390;6.136;2024-01-30T00:09:47;14.98;;;7.32;;
37201;SDS011;37799;52.390;6.136;2024-01-30T00:12:15;15.98;;;7.30;;
37201;SDS011;37799;52.390;6.136;2024-01-30T00:14:41;14.77;;;6.97;;
37201;SDS011;37799;52.390;6.136;2024-01-30T00:17:08;16.00;;;7.32;;
37201;SDS011;37799;52.390;6.136;2024-01-30T00:19:33;14.63;;;7.15;;
37201;SDS011;37799;52.390;6.136;2024-01-30T00:21:59;16.05;;;6.97;;
37201;SDS011;37799;52.390;6.136;2024-01-30T00:24:24;15.32;;;6.75;;
37201;SDS011;37799;52.390;6.136;2024-01-30T00:26:49;15.45;;;6.75;;
37201;SDS011;37799;52.390;6.136;2024-01-30T00:29:14;17.23;;;7.30;;
37201;SDS011;37799;52.390;6.136;2024-01-30T00:31:44;15.45;;;7.00;;
37201;SDS011;37799;52.390;6.136;2024-01-30T00:34:09;14.40;;;7.13;;
37201;SDS011;37799;52.390;6.136;2024-01-30T00:36:35;16.40;;;7.80;;
37201;SDS011;37799;52.390;6.136;2024-01-30T00:39:00;14.18;;;6.90;;
37201;SDS011;37799;52.390;6.136;2024-01-30T00:41:26;15.63;;;6.80;;
37201;SDS011;37799;52.390;6.136;2024-01-30T00:43:51;14.70;;;6.65;;
37201;SDS011;37799;52.390;6.136;2024-01-30T00:46:17;17.55;;;7.95;;
37201;SDS011;37799;52.390;6.136;2024-01-30T00:48:42;16.02;;;7.35;;
37201;SDS011;37799;52.390;6.136;2024-01-30T00:51:07;13.38;;;7.00;;
37201;SDS011;37799;52.390;6.136;2024-01-30T00:53:33;15.05;;;6.53;;
37201;SDS011;37799;52.390;6.136;2024-01-30T00:55:58;15.48;;;7.03;;
37201;SDS011;37799;52.390;6.136;2024-01-30T00:58:23;15.80;;;6.43;;
37201;SDS011;37799;52.390;6.136;2024-01-30T01:00:48;13.95;;;6.47;;
37201;SDS011;37799;52.390;6.136;2024-01-30T01:03:14;13.98;;;6.90;;
37201;SDS011;37799;52.390;6.136;2024-01-30T01:05:39;14.20;;;6.85;;
37201;SDS011;37799;52.390;6.136;2024-01-30T01:08:04;15.30;;;6.25;;
37201;SDS011;37799;52.390;6.136;2024-01-30T01:10:30;13.23;;;6.40;;
37201;SDS011;37799;52.390;6.136;2024-01-30T01:12:55;14.30;;;6.70;;
37201;SDS011;37799;52.390;6.136;2024-01-30T01:15:21;16.42;;;6.95;;
37201;SDS011;37799;52.390;6.136;2024-01-30T01:17:46;16.05;;;6.25;;
37201;SDS011;37799;52.390;6.136;2024-01-30T01:20:11;13.98;;;6.15;;
37201;SDS011;37799;52.390;6.136;2024-01-30T01:22:37;15.65;;;7.07;;
37201;SDS011;37799;52.390;6.136;2024-01-30T01:25:03;14.00;;;6.30;;
37201;SDS011;37799;52.390;6.136;2024-01-30T01:27:31;14.05;;;6.63;;
37201;SDS011;37799;52.390;6.136;2024-01-30T01:29:58;13.60;;;6.63;;
37201;SDS011;37799;52.390;6.136;2024-01-30T01:32:23;16.83;;;5.80;;
37201;SDS011;37799;52.390;6.136;2024-01-30T01:34:48;13.43;;;5.80;;
37201;SDS011;37799;52.390;6.136;2024-01-30T01:37:13;13.40;;;6.82;;
37201;SDS011;37799;52.390;6.136;2024-01-30T01:39:39;13.35;;;6.32;;
37201;SDS011;37799;52.390;6.136;2024-01-30T01:42:04;14.30;;;6.53;;
37201;SDS011;37799;52.390;6.136;2024-01-30T01:44:29;13.82;;;6.30;;
37201;SDS011;37799;52.390;6.136;2024-01-30T01:46:55;14.60;;;6.20;;
37201;SDS011;37799;52.390;6.136;2024-01-30T01:49:22;14.05;;;6.40;;
37201;SDS011;37799;52.390;6.136;2024-01-30T01:51:50;13.05;;;6.25;;
37201;SDS011;37799;52.390;6.136;2024-01-30T01:54:18;15.52;;;6.35;;
37201;SDS011;37799;52.390;6.136;2024-01-30T01:56:44;13.48;;;6.65;;
37201;SDS011;37799;52.390;6.136;2024-01-30T01:59:09;14.60;;;6.28;;
37201;SDS011;37799;52.390;6.136;2024-01-30T02:01:36;12.70;;;5.82;;
37201;SDS011;37799;52.390;6.136;2024-01-30T02:04:02;13.15;;;5.95;;
37201;SDS011;37799;52.390;6.136;2024-01-30T02:06:27;13.93;;;6.10;;
37201;SDS011;37799;52.390;6.136;2024-01-30T02:08:56;13.55;;;6.47;;
37201;SDS011;37799;52.390;6.136;2024-01-30T02:11:22;16.50;;;6.30;;
37201;SDS011;37799;52.390;6.136;2024-01-30T02:13:48;13.23;;;6.03;;
37201;SDS011;37799;52.390;6.136;2024-01-30T02:16:14;14.23;;;5.90;;
37201;SDS011;37799;52.390;6.136;2024-01-30T02:18:39;13.30;;;6.13;;
37201;SDS011;37799;52.390;6.136;2024-01-30T02:21:10;14.57;;;6.68;;
37201;SDS011;37799;52.390;6.136;2024-01-30T02:23:35;13.38;;;5.45;;
37201;SDS011;37799;52.390;6.136;2024-01-30T02:26:01;13.68;;;5.57;;
37201;SDS011;37799;52.390;6.136;2024-01-30T02:28:26;13.93;;;6.10;;
37201;SDS011;37799;52.390;6.136;2024-01-30T02:30:55;14.48;;;6.22;;
37201;SDS011;37799;52.390;6.136;2024-01-30T02:33:20;16.13;;;5.88;;
37201;SDS011;37799;52.390;6.136;2024-01-30T02:35:47;13.52;;;6.13;;
37201;SDS011;37799;52.390;6.136;2024-01-30T02:38:12;12.05;;;5.78;;
37201;SDS011;37799;52.390;6.136;2024-01-30T02:40:38;12.32;;;5.88;;
37201;SDS011;37799;52.390;6.136;2024-01-30T02:43:04;15.20;;;5.95;;
37201;SDS011;37799;52.390;6.136;2024-01-30T02:45:30;13.13;;;6.20;;
37201;SDS011;37799;52.390;6.136;2024-01-30T02:47:55;15.07;;;6.25;;
37201;SDS011;37799;52.390;6.136;2024-01-30T02:50:20;14.73;;;6.10;;
37201;SDS011;37799;52.390;6.136;2024-01-30T02:52:45;12.90;;;5.80;;
37201;SDS011;37799;52.390;6.136;2024-01-30T02:55:11;13.25;;;5.75;;
37201;SDS011;37799;52.390;6.136;2024-01-30T02:57:36;12.75;;;5.63;;
37201;SDS011;37799;52.390;6.136;2024-01-30T03:00:02;15.57;;;6.03;;
37201;SDS011;37799;52.390;6.136;2024-01-30T03:02:29;13.20;;;5.78;;
37201;SDS011;37799;52.390;6.136;2024-01-30T03:04:54;14.15;;;5.80;;
37201;SDS011;37799;52.390;6.136;2024-01-30T03:07:20;15.05;;;5.55;;
37201;SDS011;37799;52.390;6.136;2024-01-30T03:09:45;12.63;;;5.85;;
37201;SDS011;37799;52.390;6.136;2024-01-30T03:12:11;14.85;;;6.03;;
37201;SDS011;37799;52.390;6.136;2024-01-30T03:14:36;14.85;;;5.90;;
37201;SDS011;37799;52.390;6.136;2024-01-30T03:17:01;13.95;;;6.13;;
37201;SDS011;37799;52.390;6.136;2024-01-30T03:19:27;14.15;;;6.28;;
37201;SDS011;37799;52.390;6.136;2024-01-30T03:21:53;14.40;;;5.72;;
37201;SDS011;37799;52.390;6.136;2024-01-30T03:24:18;15.98;;;6.47;;
37201;SDS011;37799;52.390;6.136;2024-01-30T03:26:43;14.07;;;6.25;;
37201;SDS011;37799;52.390;6.136;2024-01-30T03:29:09;14.18;;;6.15;;
37201;SDS011;37799;52.390;6.136;2024-01-30T03:31:34;11.32;;;5.57;;
37201;SDS011;37799;52.390;6.136;2024-01-30T03:34:00;14.18;;;6.32;;
37201;SDS011;37799;52.390;6.136;2024-01-30T03:36:26;12.60;;;6.40;;
37201;SDS011;37799;52.390;6.136;2024-01-30T03:38:52;12.88;;;5.60;;
37201;SDS011;37799;52.390;6.136;2024-01-30T03:41:17;13.10;;;6.07;;
37201;SDS011;37799;52.390;6.136;2024-01-30T03:43:42;15.27;;;6.03;;
37201;SDS011;37799;52.390;6.136;2024-01-30T03:46:08;13.55;;;5.85;;
37201;SDS011;37799;52.390;6.136;2024-01-30T03:48:33;13.32;;;5.72;;
37201;SDS011;37799;52.390;6.136;2024-01-30T03:50:58;12.80;;;5.43;;
37201;SDS011;37799;52.390;6.136;2024-01-30T03:53:24;14.10;;;5.47;;
37201;SDS011;37799;52.390;6.136;2024-01-30T03:55:49;12.20;;;5.38;;
37201;SDS011;37799;52.390;6.136;2024-01-30T03:58:15;12.32;;;6.00;;
37201;SDS011;37799;52.390;6.136;2024-01-30T04:00:40;13.23;;;6.35;;
37201;SDS011;37799;52.390;6.136;2024-01-30T04:03:06;12.02;;;5.22;;
37201;SDS011;37799;52.390;6.136;2024-01-30T04:05:31;13.82;;;5.63;;
37201;SDS011;37799;52.390;6.136;2024-01-30T04:07:57;11.32;;;5.10;;
37201;SDS011;37799;52.390;6.136;2024-01-30T04:10:23;12.52;;;5.60;;
37201;SDS011;37799;52.390;6.136;2024-01-30T04:12:48;12.25;;;5.30;;
37201;SDS011;37799;52.390;6.136;2024-01-30T04:15:13;13.95;;;5.70;;
37201;SDS011;37799;52.390;6.136;2024-01-30T04:17:39;12.20;;;5.63;;
37201;SDS011;37799;52.390;6.136;2024-01-30T04:20:05;14.05;;;5.93;;
37201;SDS011;37799;52.390;6.136;2024-01-30T04:22:31;14.48;;;5.45;;
37201;SDS011;37799;52.390;6.136;2024-01-30T04:24:56;11.60;;;5.32;;
37201;SDS011;37799;52.390;6.136;2024-01-30T04:27:21;12.25;;;5.68;;
37201;SDS011;37799;52.390;6.136;2024-01-30T04:29:47;11.90;;;5.55;;
37201;SDS011;37799;52.390;6.136;2024-01-30T04:32:12;13.10;;;5.88;;
37201;SDS011;37799;52.390;6.136;2024-01-30T04:34:37;11.60;;;5.78;;
37201;SDS011;37799;52.390;6.136;2024-01-30T04:37:02;12.02;;;5.25;;
37201;SDS011;37799;52.390;6.136;2024-01-30T04:39:28;13.75;;;5.78;;
37201;SDS011;37799;52.390;6.136;2024-01-30T04:41:53;11.75;;;5.05;;
37201;SDS011;37799;52.390;6.136;2024-01-30T04:44:19;13.10;;;5.60;;
37201;SDS011;37799;52.390;6.136;2024-01-30T04:46:44;13.80;;;5.45;;
37201;SDS011;37799;52.390;6.136;2024-01-30T04:49:09;13.68;;;5.88;;
37201;SDS011;37799;52.390;6.136;2024-01-30T04:51:35;11.25;;;5.32;;
37201;SDS011;37799;52.390;6.136;2024-01-30T04:54:00;14.20;;;5.68;;
37201;SDS011;37799;52.390;6.136;2024-01-30T04:56:25;11.95;;;5.88;;
37201;SDS011;37799;52.390;6.136;2024-01-30T04:58:51;14.02;;;5.15;;
37201;SDS011;37799;52.390;6.136;2024-01-30T05:01:16;12.20;;;5.53;;
37201;SDS011;37799;52.390;6.136;2024-01-30T05:03:42;13.80;;;5.85;;
37201;SDS011;37799;52.390;6.136;2024-01-30T05:06:07;12.98;;;5.43;;
37201;SDS011;37799;52.390;6.136;2024-01-30T05:08:33;10.65;;;5.18;;
37201;SDS011;37799;52.390;6.136;2024-01-30T05:11:01;13.30;;;5.55;;
37201;SDS011;37799;52.390;6.136;2024-01-30T05:13:28;12.80;;;5.35;;
37201;SDS011;37799;52.390;6.136;2024-01-30T05:15:57;14.15;;;5.53;;
37201;SDS011;37799;52.390;6.136;2024-01-30T05:18:22;13.13;;;5.20;;
37201;SDS011;37799;52.390;6.136;2024-01-30T05:20:49;11.43;;;5.22;;
37201;SDS011;37799;52.390;6.136;2024-01-30T05:23:15;13.88;;;5.47;;
37201;SDS011;37799;52.390;6.136;2024-01-30T05:25:41;12.32;;;5.80;;
37201;SDS011;37799;52.390;6.136;2024-01-30T05:28:06;11.40;;;5.53;;
37201;SDS011;37799;52.390;6.136;2024-01-30T05:30:31;12.68;;;5.18;;
37201;SDS011;37799;52.390;6.136;2024-01-30T05:32:56;13.90;;;5.38;;
37201;SDS011;37799;52.390;6.136;2024-01-30T05:35:22;12.25;;;5.50;;
37201;SDS011;37799;52.390;6.136;2024-01-30T05:37:48;12.88;;;5.53;;
37201;SDS011;37799;52.390;6.136;2024-01-30T05:40:14;12.90;;;5.25;;
37201;SDS011;37799;52.390;6.136;2024-01-30T05:42:39;14.45;;;5.60;;
37201;SDS011;37799;52.390;6.136;2024-01-30T05:45:05;12.63;;;5.75;;
37201;SDS011;37799;52.390;6.136;2024-01-30T05:47:30;11.20;;;5.20;;
37201;SDS011;37799;52.390;6.136;2024-01-30T05:49:56;11.30;;;5.22;;
37201;SDS011;37799;52.390;6.136;2024-01-30T05:52:21;11.82;;;5.47;;
37201;SDS011;37799;52.390;6.136;2024-01-30T05:54:46;12.43;;;5.45;;
37201;SDS011;37799;52.390;6.136;2024-01-30T05:57:11;11.07;;;5.00;;
37201;SDS011;37799;52.390;6.136;2024-01-30T05:59:37;12.27;;;4.97;;
37201;SDS011;37799;52.390;6.136;2024-01-30T06:02:02;12.45;;;5.38;;
37201;SDS011;37799;52.390;6.136;2024-01-30T06:04:28;12.48;;;5.10;;
37201;SDS011;37799;52.390;6.136;2024-01-30T06:06:53;12.20;;;5.35;;
37201;SDS011;37799;52.390;6.136;2024-01-30T06:09:18;13.18;;;5.13;;
37201;SDS011;37799;52.390;6.136;2024-01-30T06:11:44;13.43;;;5.63;;
37201;SDS011;37799;52.390;6.136;2024-01-30T06:14:10;14.30;;;5.53;;
37201;SDS011;37799;52.390;6.136;2024-01-30T06:16:35;13.77;;;4.90;;
37201;SDS011;37799;52.390;6.136;2024-01-30T06:19:00;12.93;;;5.53;;
37201;SDS011;37799;52.390;6.136;2024-01-30T06:21:26;11.70;;;4.80;;
37201;SDS011;37799;52.390;6.136;2024-01-30T06:23:51;11.65;;;5.03;;
37201;SDS011;37799;52.390;6.136;2024-01-30T06:26:16;14.23;;;5.88;;
37201;SDS011;37799;52.390;6.136;2024-01-30T06:28:42;13.45;;;5.20;;
37201;SDS011;37799;52.390;6.136;2024-01-30T06:31:07;11.68;;;5.45;;
37201;SDS011;37799;52.390;6.136;2024-01-30T06:33:32;11.65;;;5.00;;
37201;SDS011;37799;52.390;6.136;2024-01-30T06:35:58;13.05;;;4.85;;
37201;SDS011;37799;52.390;6.136;2024-01-30T06:38:23;11.45;;;5.30;;
37201;SDS011;37799;52.390;6.136;2024-01-30T06:40:49;11.13;;;4.68;;
37201;SDS011;37799;52.390;6.136;2024-01-30T06:43:14;13.85;;;4.93;;
37201;SDS011;37799;52.390;6.136;2024-01-30T06:45:39;13.05;;;5.07;;
37201;SDS011;37799;52.390;6.136;2024-01-30T06:48:05;14.30;;;5.65;;
37201;SDS011;37799;52.390;6.136;2024-01-30T06:50:31;11.65;;;5.40;;
37201;SDS011;37799;52.390;6.136;2024-01-30T06:52:56;13.25;;;4.93;;
37201;SDS011;37799;52.390;6.136;2024-01-30T06:55:21;13.07;;;5.22;;
37201;SDS011;37799;52.390;6.136;2024-01-30T06:57:47;13.63;;;5.65;;
37201;SDS011;37799;52.390;6.136;2024-01-30T07:00:12;11.85;;;5.30;;
37201;SDS011;37799;52.390;6.136;2024-01-30T07:02:38;14.63;;;5.57;;
37201;SDS011;37799;52.390;6.136;2024-01-30T07:05:04;11.65;;;5.22;;
37201;SDS011;37799;52.390;6.136;2024-01-30T07:07:29;14.50;;;6.25;;
37201;SDS011;37799;52.390;6.136;2024-01-30T07:09:54;13.30;;;5.13;;
37201;SDS011;37799;52.390;6.136;2024-01-30T07:12:23;10.88;;;4.97;;
37201;SDS011;37799;52.390;6.136;2024-01-30T07:14:49;11.77;;;4.72;;
37201;SDS011;37799;52.390;6.136;2024-01-30T07:17:15;15.68;;;4.88;;
37201;SDS011;37799;52.390;6.136;2024-01-30T07:19:40;11.65;;;5.18;;
37201;SDS011;37799;52.390;6.136;2024-01-30T07:22:06;11.30;;;5.07;;
37201;SDS011;37799;52.390;6.136;2024-01-30T07:24:31;11.68;;;5.00;;
37201;SDS011;37799;52.390;6.136;2024-01-30T07:26:56;12.32;;;4.78;;
37201;SDS011;37799;52.390;6.136;2024-01-30T07:29:22;12.10;;;4.80;;
37201;SDS011;37799;52.390;6.136;2024-01-30T07:31:47;13.18;;;4.90;;
37201;SDS011;37799;52.390;6.136;2024-01-30T07:34:12;12.75;;;5.10;;
37201;SDS011;37799;52.390;6.136;2024-01-30T07:36:38;10.48;;;4.70;;
37201;SDS011;37799;52.390;6.136;2024-01-30T07:39:03;10.70;;;4.45;;
37201;SDS011;37799;52.390;6.136;2024-01-30T07:41:28;11.00;;;4.65;;
37201;SDS011;37799;52.390;6.136;2024-01-30T07:43:54;11.43;;;4.50;;
37201;SDS011;37799;52.390;6.136;2024-01-30T07:46:19;11.43;;;4.75;;
37201;SDS011;37799;52.390;6.136;2024-01-30T07:48:44;12.70;;;4.70;;
37201;SDS011;37799;52.390;6.136;2024-01-30T07:51:09;10.07;;;4.63;;
37201;SDS011;37799;52.390;6.136;2024-01-30T07:53:35;10.60;;;4.93;;
37201;SDS011;37799;52.390;6.136;2024-01-30T07:56:00;11.30;;;4.70;;
37201;SDS011;37799;52.390;6.136;2024-01-30T07:58:25;9.65;;;4.43;;
37201;SDS011;37799;52.390;6.136;2024-01-30T08:00:52;9.88;;;4.72;;
37201;SDS011;37799;52.390;6.136;2024-01-30T08:03:18;12.55;;;4.53;;
37201;SDS011;37799;52.390;6.136;2024-01-30T08:05:43;8.82;;;4.18;;
37201;SDS011;37799;52.390;6.136;2024-01-30T08:08:09;10.85;;;4.75;;
37201;SDS011;37799;52.390;6.136;2024-01-30T08:10:34;10.13;;;4.65;;
37201;SDS011;37799;52.390;6.136;2024-01-30T08:12:59;10.18;;;4.20;;
37201;SDS011;37799;52.390;6.136;2024-01-30T08:15:25;10.20;;;4.22;;
37201;SDS011;37799;52.390;6.136;2024-01-30T08:17:50;9.40;;;4.13;;
37201;SDS011;37799;52.390;6.136;2024-01-30T08:20:20;9.60;;;4.87;;
37201;SDS011;37799;52.390;6.136;2024-01-30T08:22:46;10.05;;;4.72;;
37201;SDS011;37799;52.390;6.136;2024-01-30T08:25:11;10.45;;;5.03;;
37201;SDS011;37799;52.390;6.136;2024-01-30T08:27:36;11.77;;;4.97;;
37201;SDS011;37799;52.390;6.136;2024-01-30T08:30:04;10.27;;;4.72;;
37201;SDS011;37799;52.390;6.136;2024-01-30T08:32:31;13.82;;;5.30;;
37201;SDS011;37799;52.390;6.136;2024-01-30T08:34:56;13.20;;;4.90;;
37201;SDS011;37799;52.390;6.136;2024-01-30T08:37:22;9.63;;;4.22;;
37201;SDS011;37799;52.390;6.136;2024-01-30T08:39:47;10.77;;;4.78;;
37201;SDS011;37799;52.390;6.136;2024-01-30T08:42:12;10.95;;;4.47;;
37201;SDS011;37799;52.390;6.136;2024-01-30T08:44:38;9.45;;;4.20;;
37201;SDS011;37799;52.390;6.136;2024-01-30T08:47:03;11.20;;;4.60;;
37201;SDS011;37799;52.390;6.136;2024-01-30T08:49:29;10.25;;;4.10;;
37201;SDS011;37799;52.390;6.136;2024-01-30T08:51:54;10.43;;;4.22;;
37201;SDS011;37799;52.390;6.136;2024-01-30T08:54:20;9.40;;;4.13;;
37201;SDS011;37799;52.390;6.136;2024-01-30T08:56:45;10.95;;;5.10;;
37201;SDS011;37799;52.390;6.136;2024-01-30T08:59:10;10.15;;;4.50;;
37201;SDS011;37799;52.390;6.136;2024-01-30T09:01:36;12.13;;;4.45;;
37201;SDS011;37799;52.390;6.136;2024-01-30T09:04:01;9.38;;;4.20;;
37201;SDS011;37799;52.390;6.136;2024-01-30T09:06:26;11.90;;;4.35;;
37201;SDS011;37799;52.390;6.136;2024-01-30T09:08:53;10.15;;;4.43;;
37201;SDS011;37799;52.390;6.136;2024-01-30T09:11:19;9.85;;;4.53;;
37201;SDS011;37799;52.390;6.136;2024-01-30T09:13:44;13.15;;;4.60;;
37201;SDS011;37799;52.390;6.136;2024-01-30T09:16:09;10.70;;;4.13;;
37201;SDS011;37799;52.390;6.136;2024-01-30T09:18:35;10.25;;;4.30;;
37201;SDS011;37799;52.390;6.136;2024-01-30T09:21:00;11.48;;;4.32;;
37201;SDS011;37799;52.390;6.136;2024-01-30T09:23:27;11.30;;;4.13;;
37201;SDS011;37799;52.390;6.136;2024-01-30T09:25:53;13.13;;;4.35;;
37201;SDS011;37799;52.390;6.136;2024-01-30T09:28:18;12.27;;;4.15;;
37201;SDS011;37799;52.390;6.136;2024-01-30T09:30:43;11.88;;;4.05;;
37201;SDS011;37799;52.390;6.136;2024-01-30T09:33:09;10.80;;;3.95;;
37201;SDS011;37799;52.390;6.136;2024-01-30T09:35:34;11.45;;;4.05;;
37201;SDS011;37799;52.390;6.136;2024-01-30T09:38:01;12.10;;;4.70;;
37201;SDS011;37799;52.390;6.136;2024-01-30T09:40:26;11.70;;;4.45;;
37201;SDS011;37799;52.390;6.136;2024-01-30T09:42:52;13.02;;;4.60;;
37201;SDS011;37799;52.390;6.136;2024-01-30T09:45:19;11.13;;;4.50;;
37201;SDS011;37799;52.390;6.136;2024-01-30T09:47:48;14.10;;;4.57;;
37201;SDS011;37799;52.390;6.136;2024-01-30T09:50:14;16.15;;;5.18;;
37201;SDS011;37799;52.390;6.136;2024-01-30T09:52:40;12.00;;;4.97;;
37201;SDS011;37799;52.390;6.136;2024-01-30T09:55:06;13.40;;;4.70;;
37201;SDS011;37799;52.390;6.136;2024-01-30T09:57:32;10.68;;;4.05;;
37201;SDS011;37799;52.390;6.136;2024-01-30T09:59:57;10.68;;;4.30;;
37201;SDS011;37799;52.390;6.136;2024-01-30T10:02:23;11.02;;;4.18;;
37201;SDS011;37799;52.390;6.136;2024-01-30T10:04:49;13.10;;;4.40;;
37201;SDS011;37799;52.390;6.136;2024-01-30T10:07:15;14.57;;;4.57;;
37201;SDS011;37799;52.390;6.136;2024-01-30T10:09:40;12.07;;;4.40;;
37201;SDS011;37799;52.390;6.136;2024-01-30T10:12:06;13.30;;;4.15;;
37201;SDS011;37799;52.390;6.136;2024-01-30T10:14:33;10.93;;;4.15;;
37201;SDS011;37799;52.390;6.136;2024-01-30T10:16:59;13.85;;;5.00;;
37201;SDS011;37799;52.390;6.136;2024-01-30T10:19:24;12.50;;;4.30;;
37201;SDS011;37799;52.390;6.136;2024-01-30T10:21:49;13.90;;;5.10;;
37201;SDS011;37799;52.390;6.136;2024-01-30T10:24:15;12.55;;;4.45;;
37201;SDS011;37799;52.390;6.136;2024-01-30T10:26:43;13.38;;;4.55;;
37201;SDS011;37799;52.390;6.136;2024-01-30T10:29:08;10.85;;;4.38;;
37201;SDS011;37799;52.390;6.136;2024-01-30T10:31:34;11.52;;;4.65;;
37201;SDS011;37799;52.390;6.136;2024-01-30T10:33:59;11.63;;;4.32;;
37201;SDS011;37799;52.390;6.136;2024-01-30T10:36:28;13.57;;;4.45;;
37201;SDS011;37799;52.390;6.136;2024-01-30T10:38:59;11.07;;;3.72;;
37201;SDS011;37799;52.390;6.136;2024-01-30T10:41:27;10.57;;;4.38;;
37201;SDS011;37799;52.390;6.136;2024-01-30T10:44:05;11.55;;;3.95;;
37201;SDS011;37799;52.390;6.136;2024-01-30T10:46:33;11.55;;;4.47;;
37201;SDS011;37799;52.390;6.136;2024-01-30T10:49:00;11.57;;;5.00;;
37201;SDS011;37799;52.390;6.136;2024-01-30T10:51:26;10.70;;;4.65;;
37201;SDS011;37799;52.390;6.136;2024-01-30T10:53:52;13.25;;;5.18;;
37201;SDS011;37799;52.390;6.136;2024-01-30T10:56:20;10.10;;;4.40;;
37201;SDS011;37799;52.390;6.136;2024-01-30T10:58:46;12.27;;;4.45;;
37201;SDS011;37799;52.390;6.136;2024-01-30T11:01:13;9.77;;;4.15;;
37201;SDS011;37799;52.390;6.136;2024-01-30T11:03:39;11.70;;;5.00;;
37201;SDS011;37799;52.390;6.136;2024-01-30T11:06:05;11.52;;;4.65;;
37201;SDS011;37799;52.390;6.136;2024-01-30T11:08:38;13.40;;;4.43;;
37201;SDS011;37799;52.390;6.136;2024-01-30T11:11:07;11.18;;;4.57;;
37201;SDS011;37799;52.390;6.136;2024-01-30T11:13:34;11.40;;;4.38;;
37201;SDS011;37799;52.390;6.136;2024-01-30T11:16:04;11.30;;;4.47;;
37201;SDS011;37799;52.390;6.136;2024-01-30T11:18:30;9.43;;;4.38;;
37201;SDS011;37799;52.390;6.136;2024-01-30T11:20:57;11.70;;;4.15;;
37201;SDS011;37799;52.390;6.136;2024-01-30T11:23:29;9.40;;;3.90;;
37201;SDS011;37799;52.390;6.136;2024-01-30T11:25:54;13.65;;;4.22;;
37201;SDS011;37799;52.390;6.136;2024-01-30T11:28:21;10.45;;;4.03;;
37201;SDS011;37799;52.390;6.136;2024-01-30T11:30:47;11.38;;;4.00;;
37201;SDS011;37799;52.390;6.136;2024-01-30T11:33:16;9.52;;;3.60;;
37201;SDS011;37799;52.390;6.136;2024-01-30T11:35:52;9.82;;;3.70;;
37201;SDS011;37799;52.390;6.136;2024-01-30T11:38:18;14.63;;;4.72;;
37201;SDS011;37799;52.390;6.136;2024-01-30T11:40:43;10.23;;;3.88;;
37201;SDS011;37799;52.390;6.136;2024-01-30T11:43:09;9.93;;;3.80;;
37201;SDS011;37799;52.390;6.136;2024-01-30T11:45:34;8.70;;;3.88;;
37201;SDS011;37799;52.390;6.136;2024-01-30T11:48:01;10.52;;;3.90;;
37201;SDS011;37799;52.390;6.136;2024-01-30T11:50:28;8.02;;;3.20;;
37201;SDS011;37799;52.390;6.136;2024-01-30T11:52:54;10.45;;;3.40;;
37201;SDS011;37799;52.390;6.136;2024-01-30T11:55:20;11.05;;;3.60;;
37201;SDS011;37799;52.390;6.136;2024-01-30T11:57:45;10.63;;;3.47;;
37201;SDS011;37799;52.390;6.136;2024-01-30T12:00:14;10.55;;;2.75;;
37201;SDS011;37799;52.390;6.136;2024-01-30T12:02:40;9.68;;;3.42;;
37201;SDS011;37799;52.390;6.136;2024-01-30T12:05:06;7.57;;;2.97;;
37201;SDS011;37799;52.390;6.136;2024-01-30T12:07:32;8.98;;;3.10;;
37201;SDS011;37799;52.390;6.136;2024-01-30T12:09:58;9.85;;;3.28;;
37201;SDS011;37799;52.390;6.136;2024-01-30T12:12:27;7.78;;;2.80;;
37201;SDS011;37799;52.390;6.136;2024-01-30T12:14:53;7.72;;;2.88;;
37201;SDS011;37799;52.390;6.136;2024-01-30T12:17:30;8.90;;;2.85;;
37201;SDS011;37799;52.390;6.136;2024-01-30T12:20:03;7.90;;;2.80;;
37201;SDS011;37799;52.390;6.136;2024-01-30T12:22:29;7.78;;;2.40;;
37201;SDS011;37799;52.390;6.136;2024-01-30T12:24:54;7.78;;;2.00;;
37201;SDS011;37799;52.390;6.136;2024-01-30T12:27:19;6.88;;;2.50;;
37201;SDS011;37799;52.390;6.136;2024-01-30T12:29:44;6.60;;;2.10;;
37201;SDS011;37799;52.390;6.136;2024-01-30T12:32:14;10.45;;;2.70;;
37201;SDS011;37799;52.390;6.136;2024-01-30T12:37:06;8.05;;;1.73;;
37201;SDS011;37799;52.390;6.136;2024-01-30T12:39:34;6.18;;;1.45;;
37201;SDS011;37799;52.390;6.136;2024-01-30T12:42:00;6.68;;;1.70;;
37201;SDS011;37799;52.390;6.136;2024-01-30T12:44:25;6.25;;;1.45;;
37201;SDS011;37799;52.390;6.136;2024-01-30T12:46:50;8.13;;;1.63;;
37201;SDS011;37799;52.390;6.136;2024-01-30T12:49:16;7.35;;;1.92;;
37201;SDS011;37799;52.390;6.136;2024-01-30T12:51:41;11.93;;;2.67;;
37201;SDS011;37799;52.390;6.136;2024-01-30T12:54:07;8.60;;;2.47;;
37201;SDS011;37799;52.390;6.136;2024-01-30T12:56:32;5.97;;;1.80;;
37201;SDS011;37799;52.390;6.136;2024-01-30T12:58:58;5.57;;;1.17;;
37201;SDS011;37799;52.390;6.136;2024-01-30T13:01:23;4.72;;;1.20;;
37201;SDS011;37799;52.390;6.136;2024-01-30T13:03:49;3.85;;;0.88;;
37201;SDS011;37799;52.390;6.136;2024-01-30T13:06:14;2.38;;;0.50;;
37201;SDS011;37799;52.390;6.136;2024-01-30T13:08:40;5.38;;;1.00;;
37201;SDS011;37799;52.390;6.136;2024-01-30T13:11:05;4.50;;;1.02;;
37201;SDS011;37799;52.390;6.136;2024-01-30T13:13:30;3.65;;;0.45;;
37201;SDS011;37799;52.390;6.136;2024-01-30T13:15:56;5.20;;;0.80;;
37201;SDS011;37799;52.390;6.136;2024-01-30T13:18:22;4.28;;;0.80;;
37201;SDS011;37799;52.390;6.136;2024-01-30T13:20:47;2.90;;;0.73;;
37201;SDS011;37799;52.390;6.136;2024-01-30T13:23:13;3.95;;;0.95;;
37201;SDS011;37799;52.390;6.136;2024-01-30T13:25:38;5.18;;;1.55;;
37201;SDS011;37799;52.390;6.136;2024-01-30T13:28:03;3.83;;;0.88;;
37201;SDS011;37799;52.390;6.136;2024-01-30T13:30:29;5.35;;;1.70;;
37201;SDS011;37799;52.390;6.136;2024-01-30T13:32:54;4.97;;;1.30;;
37201;SDS011;37799;52.390;6.136;2024-01-30T13:35:20;5.60;;;1.67;;
37201;SDS011;37799;52.390;6.136;2024-01-30T13:37:45;4.80;;;1.10;;
37201;SDS011;37799;52.390;6.136;2024-01-30T13:40:12;5.22;;;0.90;;
37201;SDS011;37799;52.390;6.136;2024-01-30T13:42:39;2.80;;;0.82;;
37201;SDS011;37799;52.390;6.136;2024-01-30T13:45:05;2.55;;;0.70;;
37201;SDS011;37799;52.390;6.136;2024-01-30T13:47:30;2.30;;;0.47;;
37201;SDS011;37799;52.390;6.136;2024-01-30T13:49:56;3.92;;;0.70;;
37201;SDS011;37799;52.390;6.136;2024-01-30T13:52:22;3.50;;;0.70;;
37201;SDS011;37799;52.390;6.136;2024-01-30T13:54:47;2.60;;;0.52;;
37201;SDS011;37799;52.390;6.136;2024-01-30T13:57:12;4.75;;;0.73;;
37201;SDS011;37799;52.390;6.136;2024-01-30T13:59:38;2.92;;;0.80;;
37201;SDS011;37799;52.390;6.136;2024-01-30T14:02:03;4.75;;;0.80;;
37201;SDS011;37799;52.390;6.136;2024-01-30T14:04:29;3.42;;;0.70;;
37201;SDS011;37799;52.390;6.136;2024-01-30T14:06:54;3.70;;;0.80;;
37201;SDS011;37799;52.390;6.136;2024-01-30T14:09:19;3.60;;;0.77;;
37201;SDS011;37799;52.390;6.136;2024-01-30T14:11:46;4.32;;;1.00;;
37201;SDS011;37799;52.390;6.136;2024-01-30T14:14:11;6.13;;;1.10;;
37201;SDS011;37799;52.390;6.136;2024-01-30T14:16:37;4.18;;;1.02;;
37201;SDS011;37799;52.390;6.136;2024-01-30T14:19:02;2.30;;;0.43;;
37201;SDS011;37799;52.390;6.136;2024-01-30T14:21:28;5.25;;;1.20;;
37201;SDS011;37799;52.390;6.136;2024-01-30T14:23:53;2.17;;;0.65;;
37201;SDS011;37799;52.390;6.136;2024-01-30T14:26:18;5.22;;;0.90;;
37201;SDS011;37799;52.390;6.136;2024-01-30T14:28:43;4.30;;;0.77;;
37201;SDS011;37799;52.390;6.136;2024-01-30T14:31:10;3.67;;;0.85;;